Terminal Aerodrome Forecast
Issued by NWS

Home | Current Version | Previous Version | Text Only | Print | Product List | Glossary On
Versions: 1 2 3 4 5 6 7 8 9 10 11 12 13 14 15 16 17
778
FTUS43 KLSX 291043 AAA
TAFCPS
TAF AMD
KCPS 291043Z 2911/3006 VRB03KT P6SM FEW050
      TEMPO 2911/2914 2SM BR
     FM291500 30006KT P6SM FEW050
     FM300100 00000KT P6SM FEW250=

USA.gov is the U.S. government's official web portal to all federal, state and local government web resources and services.